createdAt,value
2023-05-16T00:00:06.829Z,96.02
2023-05-16T00:02:33.751Z,95.33
2023-05-16T00:05:00.573Z,95.09
2023-05-16T00:07:27.318Z,94.96
2023-05-16T00:09:53.791Z,95.47
2023-05-16T00:12:20.258Z,96.37
2023-05-16T00:14:46.737Z,96.62
2023-05-16T00:17:13.322Z,96.32
2023-05-16T00:19:40.553Z,96.90
2023-05-16T00:22:07.081Z,97.76
2023-05-16T00:24:34.661Z,98.87
2023-05-16T00:27:01.076Z,98.93
2023-05-16T00:29:27.922Z,99.13
2023-05-16T00:31:54.460Z,99.51
2023-05-16T00:34:21.228Z,100.00
2023-05-16T00:36:47.801Z,99.80
2023-05-16T00:39:14.547Z,99.47
2023-05-16T00:41:41.219Z,99.65
2023-05-16T00:44:08.095Z,99.35
2023-05-16T00:46:35.808Z,99.23
2023-05-16T00:49:02.692Z,99.28
2023-05-16T00:51:29.764Z,99.65
2023-05-16T00:53:57.208Z,99.75
2023-05-16T00:56:24.006Z,99.64
2023-05-16T00:58:51.052Z,99.65
2023-05-16T01:01:20.270Z,99.86
2023-05-16T01:03:46.990Z,100.00
2023-05-16T01:06:13.819Z,100.00
2023-05-16T01:08:40.346Z,100.00
2023-05-16T01:11:22.267Z,100.00
2023-05-16T01:14:12.863Z,100.00
2023-05-16T01:16:45.820Z,100.00
2023-05-16T01:19:37.237Z,100.00
2023-05-16T01:22:16.473Z,100.00
2023-05-16T01:24:48.986Z,100.00
2023-05-16T01:27:16.855Z,100.00
2023-05-16T01:29:43.581Z,100.00
2023-05-16T01:32:10.100Z,100.00
2023-05-16T01:34:36.754Z,100.00
2023-05-16T01:37:18.656Z,100.00
2023-05-16T01:39:57.392Z,100.00
2023-05-16T01:42:27.147Z,100.00
2023-05-16T01:45:03.161Z,100.00
2023-05-16T01:47:31.702Z,100.00
2023-05-16T01:50:16.104Z,100.00
2023-05-16T01:52:47.716Z,100.00
2023-05-16T01:55:21.356Z,100.00
2023-05-16T01:57:49.609Z,100.00
2023-05-16T02:00:16.228Z,100.00
2023-05-16T02:02:42.689Z,100.00
2023-05-16T02:05:09.740Z,100.00
2023-05-16T02:07:36.268Z,100.00
2023-05-16T02:10:03.118Z,100.00
2023-05-16T02:12:29.684Z,100.00
2023-05-16T02:14:56.122Z,100.00
2023-05-16T02:17:22.614Z,100.00
2023-05-16T02:19:49.224Z,100.00
2023-05-16T02:22:15.760Z,100.00
2023-05-16T02:24:42.239Z,100.00
2023-05-16T02:27:08.751Z,100.00
2023-05-16T02:29:35.394Z,100.00
2023-05-16T02:32:01.890Z,100.00
2023-05-16T02:34:28.399Z,100.00
2023-05-16T02:36:55.055Z,100.00
2023-05-16T02:39:21.573Z,100.00
2023-05-16T02:41:48.244Z,100.00
2023-05-16T02:44:14.749Z,100.00
2023-05-16T02:46:41.319Z,100.00
2023-05-16T02:49:07.900Z,100.00
2023-05-16T02:51:34.502Z,100.00
2023-05-16T02:54:01.004Z,100.00
2023-05-16T02:56:27.604Z,100.00
2023-05-16T02:58:55.496Z,100.00
2023-05-16T03:01:22.216Z,100.00
2023-05-16T03:03:48.826Z,100.00
2023-05-16T03:06:15.516Z,100.00
2023-05-16T03:08:42.099Z,100.00
2023-05-16T03:11:08.639Z,100.00
2023-05-16T03:13:35.046Z,100.00
2023-05-16T03:16:01.823Z,100.00
2023-05-16T03:18:28.821Z,100.00
2023-05-16T03:20:55.404Z,100.00
2023-05-16T03:23:22.135Z,100.00
2023-05-16T03:25:49.254Z,100.00
2023-05-16T03:28:17.343Z,100.00
2023-05-16T03:30:44.028Z,100.00
2023-05-16T03:33:10.601Z,100.00
2023-05-16T03:35:37.084Z,100.00
2023-05-16T03:38:03.587Z,100.00
2023-05-16T03:40:30.288Z,100.00
2023-05-16T03:42:57.007Z,100.00
2023-05-16T03:45:23.960Z,100.00
2023-05-16T03:47:50.770Z,100.00
2023-05-16T03:50:18.114Z,100.00
2023-05-16T03:52:44.920Z,100.00
2023-05-16T03:55:11.380Z,100.00
2023-05-16T03:57:37.922Z,100.00
2023-05-16T04:00:05.050Z,100.00
2023-05-16T04:02:31.602Z,100.00
2023-05-16T04:04:58.215Z,100.00
2023-05-16T04:07:24.762Z,100.00
2023-05-16T04:09:52.352Z,100.00
2023-05-16T04:12:19.674Z,99.94
2023-05-16T04:14:46.240Z,99.89
2023-05-16T04:17:12.713Z,99.25
2023-05-16T04:19:39.205Z,98.67
2023-05-16T04:22:05.665Z,96.93
2023-05-16T04:24:32.080Z,97.19
2023-05-16T04:26:58.536Z,98.09
2023-05-16T04:29:25.182Z,96.68
2023-05-16T04:31:51.955Z,95.23
2023-05-16T04:34:18.518Z,94.54
2023-05-16T04:36:45.120Z,93.90
2023-05-16T04:39:11.881Z,94.46
2023-05-16T04:41:38.288Z,94.24
2023-05-16T04:44:05.019Z,93.20
2023-05-16T04:46:31.524Z,92.77
2023-05-16T04:48:58.115Z,92.15
2023-05-16T04:51:24.854Z,90.87
2023-05-16T04:53:51.363Z,91.09
2023-05-16T04:56:17.900Z,91.10
2023-05-16T04:58:44.856Z,90.65
2023-05-16T05:01:11.455Z,90.80
2023-05-16T05:03:38.060Z,89.89
2023-05-16T05:06:04.764Z,86.91
2023-05-16T05:08:31.435Z,88.36
2023-05-16T05:10:58.070Z,88.61
2023-05-16T05:13:24.525Z,87.60
2023-05-16T05:15:50.970Z,88.70
2023-05-16T05:18:17.761Z,87.86
2023-05-16T05:20:44.775Z,87.70
2023-05-16T05:23:11.423Z,87.38
2023-05-16T05:25:39.476Z,86.99
2023-05-16T05:28:06.110Z,87.26
2023-05-16T05:30:32.624Z,87.17
2023-05-16T05:32:59.396Z,86.75
2023-05-16T05:35:26.474Z,85.76
2023-05-16T05:37:53.242Z,86.02
2023-05-16T05:40:19.708Z,86.37
2023-05-16T05:42:47.245Z,85.64
2023-05-16T05:45:15.600Z,84.82
2023-05-16T05:47:42.556Z,84.15
2023-05-16T05:50:10.031Z,83.81
2023-05-16T05:52:36.557Z,84.12
2023-05-16T05:55:03.575Z,84.24
2023-05-16T05:57:30.061Z,84.02
2023-05-16T05:59:56.573Z,83.55
2023-05-16T06:02:23.155Z,82.30
2023-05-16T06:04:49.969Z,82.27
2023-05-16T06:07:16.504Z,82.94
2023-05-16T06:09:43.059Z,82.59
2023-05-16T06:12:09.891Z,82.30
2023-05-16T06:14:36.554Z,81.45
2023-05-16T06:17:02.994Z,81.30
2023-05-16T06:19:29.643Z,81.30
2023-05-16T06:21:56.044Z,80.94
2023-05-16T06:24:22.818Z,80.75
2023-05-16T06:26:49.287Z,80.39
2023-05-16T06:29:16.544Z,80.29
2023-05-16T06:31:43.160Z,79.36
2023-05-16T06:34:09.731Z,79.42
2023-05-16T06:36:36.125Z,78.69
2023-05-16T06:39:02.860Z,78.19
2023-05-16T06:41:29.335Z,78.21
2023-05-16T06:43:55.916Z,78.09
2023-05-16T06:46:22.740Z,77.76
2023-05-16T06:48:49.333Z,77.57
2023-05-16T06:51:15.996Z,77.15
2023-05-16T06:53:42.617Z,76.52
2023-05-16T06:56:09.363Z,76.75
2023-05-16T06:58:36.044Z,76.76
2023-05-16T07:01:02.775Z,76.63
2023-05-16T07:03:29.580Z,76.09
2023-05-16T07:05:56.407Z,75.77
2023-05-16T07:08:22.925Z,75.88
2023-05-16T07:10:49.423Z,74.67
2023-05-16T07:13:15.970Z,74.33
2023-05-16T07:15:42.541Z,73.92
2023-05-16T07:18:09.102Z,73.28
2023-05-16T07:20:35.615Z,73.44
2023-05-16T07:23:02.091Z,73.29
2023-05-16T07:25:29.048Z,71.93
2023-05-16T07:27:55.837Z,71.24
2023-05-16T07:30:22.614Z,71.15
2023-05-16T07:32:49.797Z,70.82
2023-05-16T07:35:16.286Z,70.36
2023-05-16T07:37:43.007Z,69.70
2023-05-16T07:40:11.197Z,70.22
2023-05-16T07:42:37.709Z,69.86
2023-05-16T07:45:05.610Z,69.06
2023-05-16T07:47:32.210Z,67.90
2023-05-16T07:49:58.743Z,67.78
2023-05-16T07:52:25.207Z,67.47
2023-05-16T07:54:51.739Z,67.47
2023-05-16T07:57:18.271Z,67.03
2023-05-16T07:59:44.896Z,66.16
2023-05-16T08:02:12.013Z,65.56
2023-05-16T08:04:38.857Z,64.76
2023-05-16T08:07:05.636Z,63.90
2023-05-16T08:09:32.248Z,63.21
2023-05-16T08:11:58.904Z,63.97
2023-05-16T08:14:25.761Z,61.34
2023-05-16T08:16:52.323Z,60.97
2023-05-16T08:19:18.964Z,59.67
2023-05-16T08:21:45.699Z,59.68
2023-05-16T08:24:12.375Z,58.25
2023-05-16T08:26:38.830Z,59.17
2023-05-16T08:29:05.572Z,59.61
2023-05-16T08:31:32.447Z,57.86
2023-05-16T08:33:58.972Z,58.11
2023-05-16T08:36:25.513Z,57.91
2023-05-16T08:38:52.001Z,56.89
2023-05-16T08:41:18.632Z,56.16
2023-05-16T08:43:45.216Z,56.27
2023-05-16T08:46:11.748Z,56.13
2023-05-16T08:48:41.019Z,55.20
2023-05-16T08:51:09.418Z,52.97
2023-05-16T08:53:46.101Z,54.38
2023-05-16T08:56:13.514Z,52.43
2023-05-16T08:58:40.515Z,51.79
2023-05-16T09:01:07.432Z,51.90
2023-05-16T09:03:35.914Z,51.68
2023-05-16T09:06:05.955Z,50.39
2023-05-16T09:08:33.389Z,50.20
2023-05-16T09:11:01.701Z,50.49
2023-05-16T09:13:28.150Z,50.26
2023-05-16T09:16:10.568Z,49.72
2023-05-16T09:18:37.184Z,47.26
2023-05-16T09:21:05.557Z,48.77
2023-05-16T09:23:35.114Z,47.08
2023-05-16T09:26:05.142Z,44.12
2023-05-16T09:28:31.641Z,46.48
2023-05-16T09:30:58.641Z,46.87
2023-05-16T09:33:29.725Z,47.17
2023-05-16T09:36:00.852Z,44.52
2023-05-16T09:38:28.695Z,45.60
2023-05-16T09:40:55.688Z,45.43
2023-05-16T09:43:27.092Z,44.21
2023-05-16T09:45:54.583Z,43.76
2023-05-16T09:48:21.853Z,45.25
2023-05-16T09:50:50.972Z,45.19
2023-05-16T09:53:17.958Z,45.30
2023-05-16T09:55:44.408Z,44.93
2023-05-16T09:58:10.914Z,42.42
2023-05-16T10:00:38.127Z,41.28
2023-05-16T10:03:06.110Z,40.74
2023-05-16T10:05:33.816Z,40.37
2023-05-16T10:08:03.067Z,42.53
2023-05-16T10:10:30.178Z,42.28
2023-05-16T10:12:59.939Z,41.28
2023-05-16T10:15:27.657Z,42.04
2023-05-16T10:17:57.461Z,42.82
2023-05-16T10:20:24.087Z,42.99
2023-05-16T10:22:53.328Z,43.06
2023-05-16T10:25:32.099Z,42.38
2023-05-16T10:27:59.772Z,42.60
2023-05-16T10:30:26.608Z,43.18
2023-05-16T10:32:53.841Z,43.39
2023-05-16T10:35:21.139Z,42.89
2023-05-16T10:37:49.402Z,42.77
2023-05-16T10:40:17.097Z,42.50
2023-05-16T10:42:58.006Z,42.98
2023-05-16T10:45:25.191Z,43.57
2023-05-16T10:48:03.213Z,43.83
2023-05-16T10:50:43.227Z,44.05
2023-05-16T10:53:16.884Z,44.29
2023-05-16T10:55:59.742Z,44.73
2023-05-16T10:58:35.181Z,44.94
2023-05-16T11:01:32.185Z,44.71
2023-05-16T11:03:58.978Z,45.08
2023-05-16T11:06:27.865Z,44.98
2023-05-16T11:09:17.579Z,45.12
2023-05-16T11:11:53.279Z,45.33
2023-05-16T11:14:28.212Z,45.45
2023-05-16T11:17:08.093Z,45.54
2023-05-16T11:19:47.124Z,45.66
2023-05-16T11:22:19.945Z,45.83
2023-05-16T11:24:55.123Z,46.04
2023-05-16T11:27:32.889Z,46.01
2023-05-16T11:30:06.974Z,46.20
2023-05-16T11:32:35.103Z,46.07
2023-05-16T11:35:02.154Z,46.33
2023-05-16T11:37:28.899Z,46.41
2023-05-16T11:40:05.517Z,46.52
2023-05-16T11:42:35.721Z,46.73
2023-05-16T11:45:10.262Z,46.81
2023-05-16T11:47:37.489Z,46.92
2023-05-16T11:50:07.488Z,46.88
2023-05-16T11:52:34.079Z,47.05
2023-05-16T11:55:00.711Z,47.48
2023-05-16T11:57:28.095Z,47.66
2023-05-16T11:59:54.609Z,47.89
2023-05-16T12:02:21.895Z,48.01
2023-05-16T12:04:48.537Z,48.58
2023-05-16T12:07:15.128Z,48.46
2023-05-16T12:09:41.917Z,48.65
2023-05-16T12:12:08.808Z,48.85
2023-05-16T12:14:35.417Z,48.87
2023-05-16T12:17:02.358Z,49.29
2023-05-16T12:19:29.073Z,49.52
2023-05-16T12:21:55.775Z,49.65
2023-05-16T12:24:22.269Z,49.96
2023-05-16T12:26:48.964Z,49.98
2023-05-16T12:29:15.485Z,49.95
2023-05-16T12:31:42.072Z,50.38
2023-05-16T12:34:16.599Z,51.71
2023-05-16T12:36:43.154Z,51.53
2023-05-16T12:39:12.676Z,53.02
2023-05-16T12:41:42.479Z,52.51
2023-05-16T12:44:17.359Z,53.77
2023-05-16T12:46:49.437Z,55.38
2023-05-16T12:49:16.554Z,55.87
2023-05-16T12:51:49.476Z,57.36
2023-05-16T12:54:16.102Z,56.67
2023-05-16T12:56:42.634Z,57.65
2023-05-16T12:59:09.340Z,58.95
2023-05-16T13:01:36.843Z,59.54
2023-05-16T13:04:05.133Z,59.99
2023-05-16T13:06:45.046Z,59.24
2023-05-16T13:09:18.967Z,59.84
2023-05-16T13:11:45.568Z,59.35
2023-05-16T13:14:12.084Z,59.75
2023-05-16T13:16:38.818Z,61.12
2023-05-16T13:19:05.690Z,61.05
2023-05-16T13:21:32.316Z,61.73
2023-05-16T13:23:59.122Z,61.63
2023-05-16T13:26:25.851Z,63.32
2023-05-16T13:28:52.429Z,62.63
2023-05-16T13:31:19.592Z,63.32
2023-05-16T13:33:46.169Z,63.31
2023-05-16T13:36:12.716Z,66.69
2023-05-16T13:38:39.306Z,64.15
2023-05-16T13:41:05.822Z,64.54
2023-05-16T13:43:32.508Z,66.10
2023-05-16T13:45:59.049Z,65.41
2023-05-16T13:48:26.506Z,65.51
2023-05-16T13:50:53.363Z,65.19
2023-05-16T13:53:19.818Z,66.25
2023-05-16T13:55:46.716Z,66.35
2023-05-16T13:58:13.310Z,67.96
2023-05-16T14:00:45.040Z,67.12
2023-05-16T14:03:12.965Z,67.70
2023-05-16T14:05:39.669Z,69.06
2023-05-16T14:08:06.349Z,69.77
2023-05-16T14:10:32.873Z,69.79
2023-05-16T14:12:59.514Z,75.01
2023-05-16T14:15:26.201Z,74.63
2023-05-16T14:17:53.204Z,73.45
2023-05-16T14:20:19.899Z,72.63
2023-05-16T14:22:46.627Z,72.77
2023-05-16T14:25:13.166Z,75.85
2023-05-16T14:27:39.924Z,78.72
2023-05-16T14:30:07.275Z,80.26
2023-05-16T14:32:34.028Z,80.41
2023-05-16T14:35:00.601Z,81.49
2023-05-16T14:37:27.050Z,80.28
2023-05-16T14:39:53.835Z,79.76
2023-05-16T14:42:20.410Z,78.42
2023-05-16T14:44:47.015Z,78.20
2023-05-16T14:47:13.626Z,77.55
2023-05-16T14:49:40.819Z,82.94
2023-05-16T14:52:07.277Z,80.06
2023-05-16T14:54:33.796Z,80.76
2023-05-16T14:57:00.609Z,79.16
2023-05-16T14:59:28.027Z,78.85
2023-05-16T15:01:54.576Z,79.28
2023-05-16T15:04:21.481Z,79.65
2023-05-16T15:06:48.158Z,80.11
2023-05-16T15:09:14.659Z,80.25
2023-05-16T15:11:41.153Z,81.41
2023-05-16T15:14:07.698Z,80.82
2023-05-16T15:16:34.732Z,80.93
2023-05-16T15:19:01.406Z,83.41
2023-05-16T15:21:28.131Z,82.53
2023-05-16T15:23:54.720Z,83.11
2023-05-16T15:26:21.256Z,82.80
2023-05-16T15:28:48.458Z,82.85
2023-05-16T15:31:15.032Z,82.83
2023-05-16T15:33:41.566Z,82.03
2023-05-16T15:36:08.329Z,82.60
2023-05-16T15:38:34.876Z,82.01
2023-05-16T15:41:16.439Z,81.88
2023-05-16T15:43:48.177Z,82.96
2023-05-16T15:46:15.052Z,82.51
2023-05-16T15:48:41.596Z,82.88
2023-05-16T15:51:09.278Z,82.42
2023-05-16T15:53:35.961Z,82.72
2023-05-16T15:56:02.430Z,82.82
2023-05-16T15:58:28.970Z,83.32
2023-05-16T16:00:55.948Z,83.55
2023-05-16T16:03:22.822Z,84.11
2023-05-16T16:05:50.592Z,84.78
2023-05-16T16:08:18.858Z,85.20
2023-05-16T16:10:45.557Z,84.79
2023-05-16T16:13:12.166Z,85.28
2023-05-16T16:15:39.273Z,85.13
2023-05-16T16:18:06.389Z,85.06
2023-05-16T16:20:33.072Z,85.43
2023-05-16T16:22:59.639Z,85.34
2023-05-16T16:25:26.485Z,85.71
2023-05-16T16:27:53.563Z,85.35
2023-05-16T16:30:20.059Z,85.45
2023-05-16T16:32:46.729Z,86.09
2023-05-16T16:35:13.488Z,86.12
2023-05-16T16:37:41.714Z,86.28
2023-05-16T16:40:10.116Z,86.47
2023-05-16T16:42:37.136Z,86.05
2023-05-16T16:45:04.792Z,86.60
2023-05-16T16:47:31.289Z,86.66
2023-05-16T16:49:58.479Z,87.39
2023-05-16T16:52:25.170Z,87.52
2023-05-16T16:54:51.740Z,87.85
2023-05-16T16:57:18.551Z,87.61
2023-05-16T16:59:45.052Z,88.10
2023-05-16T17:02:11.700Z,88.48
2023-05-16T17:04:38.445Z,89.36
2023-05-16T17:07:05.308Z,89.64
2023-05-16T17:09:31.768Z,89.84
2023-05-16T17:11:58.400Z,89.77
2023-05-16T17:14:24.860Z,90.36
2023-05-16T17:16:51.419Z,91.06
2023-05-16T17:19:18.144Z,91.34
2023-05-16T17:21:44.796Z,91.53
2023-05-16T17:24:11.623Z,91.95
2023-05-16T17:26:38.208Z,92.11
2023-05-16T17:29:05.116Z,92.32
2023-05-16T17:31:32.005Z,93.29
2023-05-16T17:33:58.728Z,93.34
2023-05-16T17:36:25.214Z,93.05
2023-05-16T17:38:51.745Z,93.35
2023-05-16T17:41:18.701Z,93.96
2023-05-16T17:43:45.681Z,93.77
2023-05-16T17:46:12.488Z,94.19
2023-05-16T17:48:39.127Z,94.87
2023-05-16T17:51:05.830Z,94.91
2023-05-16T17:53:32.438Z,95.62
2023-05-16T17:55:58.956Z,95.78
2023-05-16T17:58:25.445Z,96.49
2023-05-16T18:00:51.958Z,96.38
2023-05-16T18:03:19.165Z,96.99
2023-05-16T18:05:45.790Z,96.64
2023-05-16T18:08:12.357Z,96.67
2023-05-16T18:10:50.902Z,97.18
2023-05-16T18:13:18.453Z,97.47
2023-05-16T18:15:45.056Z,97.55
2023-05-16T18:18:11.621Z,98.40
2023-05-16T18:20:38.279Z,98.69
2023-05-16T18:23:04.994Z,99.05
2023-05-16T18:25:31.438Z,99.25
2023-05-16T18:27:58.013Z,99.06
2023-05-16T18:30:24.557Z,99.69
2023-05-16T18:32:51.161Z,99.92
2023-05-16T18:35:18.029Z,99.99
2023-05-16T18:37:44.739Z,99.95
2023-05-16T18:40:11.850Z,100.00
2023-05-16T18:42:38.296Z,100.00
2023-05-16T18:45:05.335Z,100.00
2023-05-16T18:47:31.937Z,100.00
2023-05-16T18:49:58.649Z,100.00
2023-05-16T18:52:25.154Z,100.00
2023-05-16T18:54:51.817Z,100.00
2023-05-16T18:57:18.323Z,100.00
2023-05-16T18:59:44.820Z,100.00
2023-05-16T19:02:11.294Z,100.00
2023-05-16T19:04:37.822Z,100.00
2023-05-16T19:07:06.019Z,100.00
2023-05-16T19:09:33.874Z,100.00
2023-05-16T19:12:00.368Z,100.00
2023-05-16T19:14:26.946Z,100.00
2023-05-16T19:16:53.522Z,100.00
2023-05-16T19:19:20.225Z,100.00
2023-05-16T19:21:47.183Z,100.00
2023-05-16T19:24:13.670Z,100.00
2023-05-16T19:26:40.175Z,100.00
2023-05-16T19:29:06.900Z,100.00
2023-05-16T19:31:33.878Z,100.00
2023-05-16T19:34:00.554Z,100.00
2023-05-16T19:36:30.172Z,100.00
2023-05-16T19:38:56.918Z,100.00
2023-05-16T19:41:23.466Z,100.00
2023-05-16T19:43:51.429Z,100.00
2023-05-16T19:46:17.989Z,100.00
2023-05-16T19:48:44.693Z,100.00
2023-05-16T19:51:11.502Z,100.00
2023-05-16T19:53:38.416Z,100.00
2023-05-16T19:56:05.527Z,100.00
2023-05-16T19:58:32.200Z,100.00
2023-05-16T20:00:58.970Z,100.00
2023-05-16T20:03:25.592Z,100.00
2023-05-16T20:05:52.364Z,100.00
2023-05-16T20:08:18.791Z,100.00
2023-05-16T20:10:45.249Z,100.00
2023-05-16T20:13:11.743Z,100.00
2023-05-16T20:15:38.330Z,100.00
2023-05-16T20:18:05.005Z,100.00
2023-05-16T20:20:31.739Z,100.00
2023-05-16T20:22:58.184Z,100.00
2023-05-16T20:25:24.653Z,100.00
2023-05-16T20:27:51.324Z,100.00
2023-05-16T20:30:18.018Z,100.00
2023-05-16T20:32:44.968Z,100.00
2023-05-16T20:35:11.604Z,100.00
2023-05-16T20:37:38.594Z,100.00
2023-05-16T20:40:05.840Z,100.00
2023-05-16T20:42:32.485Z,100.00
2023-05-16T20:44:59.142Z,100.00
2023-05-16T20:47:25.661Z,100.00
2023-05-16T20:49:52.257Z,100.00
2023-05-16T20:52:20.507Z,100.00
2023-05-16T20:54:48.651Z,100.00
2023-05-16T20:57:16.002Z,100.00
2023-05-16T20:59:42.469Z,100.00
2023-05-16T21:02:09.218Z,100.00
2023-05-16T21:04:37.135Z,100.00
2023-05-16T21:07:05.357Z,100.00
2023-05-16T21:09:32.831Z,100.00
2023-05-16T21:11:59.542Z,100.00
2023-05-16T21:14:26.117Z,100.00
2023-05-16T21:16:52.772Z,100.00
2023-05-16T21:19:19.566Z,100.00
2023-05-16T21:21:46.202Z,100.00
2023-05-16T21:24:12.714Z,100.00
2023-05-16T21:26:39.325Z,100.00
2023-05-16T21:29:05.780Z,100.00
2023-05-16T21:31:32.284Z,100.00
2023-05-16T21:33:58.962Z,100.00
2023-05-16T21:36:25.664Z,100.00
2023-05-16T21:38:52.127Z,100.00
2023-05-16T21:41:19.820Z,100.00
2023-05-16T21:43:46.281Z,100.00
2023-05-16T21:46:13.060Z,100.00
2023-05-16T21:48:40.023Z,100.00
2023-05-16T21:51:06.799Z,100.00
2023-05-16T21:53:33.273Z,100.00
2023-05-16T21:56:00.605Z,100.00
2023-05-16T21:58:27.066Z,100.00
2023-05-16T22:00:53.548Z,100.00
2023-05-16T22:03:20.317Z,100.00
2023-05-16T22:05:47.096Z,100.00
2023-05-16T22:08:14.013Z,100.00
2023-05-16T22:10:40.530Z,100.00
2023-05-16T22:13:07.137Z,100.00
2023-05-16T22:15:33.656Z,100.00
2023-05-16T22:18:00.470Z,100.00
2023-05-16T22:20:27.096Z,100.00
2023-05-16T22:22:53.616Z,100.00
2023-05-16T22:25:20.292Z,100.00
2023-05-16T22:27:46.820Z,100.00
2023-05-16T22:30:13.449Z,100.00
2023-05-16T22:32:40.061Z,100.00
2023-05-16T22:35:06.964Z,100.00
2023-05-16T22:37:33.522Z,100.00
2023-05-16T22:40:00.061Z,100.00
2023-05-16T22:42:26.580Z,100.00
2023-05-16T22:44:53.057Z,100.00
2023-05-16T22:47:19.676Z,100.00
2023-05-16T22:49:46.492Z,100.00
2023-05-16T22:52:13.305Z,100.00
2023-05-16T22:54:39.823Z,100.00
2023-05-16T22:57:06.371Z,100.00
2023-05-16T22:59:32.823Z,100.00
2023-05-16T23:01:59.326Z,100.00
2023-05-16T23:04:25.840Z,100.00
2023-05-16T23:06:52.494Z,100.00
2023-05-16T23:09:19.041Z,100.00
2023-05-16T23:11:45.646Z,100.00
2023-05-16T23:14:12.102Z,100.00
2023-05-16T23:16:38.723Z,100.00
2023-05-16T23:19:07.430Z,100.00
2023-05-16T23:21:35.748Z,100.00
2023-05-16T23:24:02.310Z,100.00
2023-05-16T23:26:28.985Z,100.00
2023-05-16T23:28:55.687Z,100.00
2023-05-16T23:31:22.667Z,100.00
2023-05-16T23:33:49.231Z,100.00
2023-05-16T23:36:15.783Z,100.00
2023-05-16T23:38:42.885Z,100.00
2023-05-16T23:41:09.821Z,100.00
2023-05-16T23:43:36.281Z,100.00
2023-05-16T23:48:37.417Z,100.00
2023-05-16T23:51:04.658Z,100.00
2023-05-16T23:53:31.140Z,100.00
2023-05-16T23:55:57.958Z,100.00
2023-05-16T23:58:24.432Z,100.00
